Gassoway, Louisiana
Current Conditions -  °F | °C
As of 11:53 AM on Thursday 27 Nov 2014 (Local Time) from KTVR Reporting Station
Clear Clear  
Wind Chill: 10°   Ceiling: Unl
Heat Index: 10°   Visibility: 10mi
Dew Point: -1°   Wind: 9mph
Humidity: 46%   Direction: 350°N
Pressure: 30.52"   Gusts: NA
Location:  32.8408°N, 91.231°W
Report Text: KTVR 271753Z AUTO 35008KT 310V010 10SM CLR 10/M01 A3052 RMK AO2 SLP340 T01001011 10100 20033 50002
Loading
Personal Weather Stations






























Interactive Weather Map New forecast layout! Learn more

10-Day Weather Forecast

Advertisements
Track Severe Weather on mobile